Time;durP1;ratioP1;P1;durP2;ratioP2;P2;SDS_P1;SDS_P2;PMS_P1;PMS_P2;Temp;Humidity;BMP_temperature;BMP_pressure;BME280_temperature;BME280_humidity;BME280_pressure;Samples;Min_cycle;Max_cycle;Signal;HPM_P1;HPM_P2
2022/01/20 00:01:56;;;;;;;;;;;;;;;-0.68;100.00;98075.81;5093944;28;19928;-66
2022/01/20 00:04:28;;;;;;;;;;;;;;;-0.82;100.00;98085.09;5094098;28;19924;-63
2022/01/20 00:23:05;;;;;;;;;;;;;;;-0.84;99.84;98097.94;5034390;28;19924;-63
2022/01/20 00:26:44;;;;;;;;;;;;;;;-1.02;98.33;98094.59;5093553;28;19978;-64
2022/01/20 00:29:20;;;;;;;;;;;;;;;-1.02;97.98;98101.44;5093702;28;19931;-63
2022/01/20 00:32:01;;;;;;;;;;;;;;;-1.26;98.33;98100.91;5093372;28;19977;-69
2022/01/20 00:34:42;;;;;;;;;;;;;;;-1.24;98.39;98099.94;5105715;22;20397;-78
2022/01/20 00:37:16;;;;;;;;;;;;;;;-1.27;98.32;98094.97;5093114;28;19932;-75
2022/01/20 00:39:43;;;;;;;;;;;;;;;-1.18;97.52;98091.13;5092882;28;20450;-75
2022/01/20 00:42:11;;;;;;;;;;;;;;;-1.43;97.45;98091.53;5092972;28;19924;-74
2022/01/20 00:44:37;;;;;;;;;;;;;;;-1.34;97.51;98088.53;5106715;28;19931;-76
2022/01/20 00:47:04;;;;;;;;;;;;;;;-1.31;96.90;98088.41;5113635;28;19924;-77
2022/01/20 00:49:31;;;;;;;;;;;;;;;-1.45;97.15;98085.69;5113568;28;19924;-77
2022/01/20 00:51:57;;;;;;;;;;;;;;;-1.33;96.37;98091.00;5113426;28;19924;-75
2022/01/20 00:54:24;;;;;;;;;;;;;;;-1.43;96.14;98099.19;5113215;28;20366;-75
2022/01/20 00:56:51;;;;;;;;;;;;;;;-1.68;97.34;98105.44;5113757;28;20279;-76
2022/01/20 00:59:19;;;;;;;;;;;;;;;-1.50;96.97;98110.59;5113624;28;19930;-73
2022/01/20 01:01:45;;;;;;;;;;;;;;;-1.54;96.86;98108.19;5113421;28;19924;-76
2022/01/20 01:04:12;;;;;;;;;;;;;;;-1.36;95.12;98110.75;5113425;28;20290;-77
2022/01/20 01:06:59;;;;;;;;;;;;;;;-1.42;94.97;98100.81;5113237;28;19927;-78
2022/01/20 01:09:25;;;;;;;;;;;;;;;-1.43;94.41;98097.47;5113407;28;19924;-76
2022/01/20 01:11:57;;;;;;;;;;;;;;;-1.54;95.09;98109.91;5113326;28;19923;-76
2022/01/20 01:14:25;;;;;;;;;;;;;;;-1.63;95.41;98116.25;5113334;28;20018;-77
2022/01/20 01:20:09;;;;;;;;;;;;;;;-1.60;94.39;98126.31;5113181;28;20348;-77
2022/01/20 01:22:36;;;;;;;;;;;;;;;-1.66;93.63;98124.06;5113365;28;19946;-76
2022/01/20 01:25:02;;;;;;;;;;;;;;;-1.73;95.59;98130.34;5113116;28;19924;-77
2022/01/20 01:27:34;;;;;;;;;;;;;;;-1.65;94.23;98130.81;5112999;28;19924;-78
2022/01/20 01:30:10;;;;;;;;;;;;;;;-1.55;93.75;98131.19;5112850;28;19934;-77
2022/01/20 01:32:47;;;;;;;;;;;;;;;-1.74;93.26;98121.06;5113321;28;19993;-77
2022/01/20 01:35:14;;;;;;;;;;;;;;;-1.91;93.30;98126.91;5107991;22;19976;-63
2022/01/20 01:40:28;;;;;;;;;;;;;;;-1.93;93.92;98132.97;5092542;28;19930;-63
2022/01/20 01:42:55;;;;;;;;;;;;;;;-1.85;93.63;98128.34;5092542;28;19928;-63
2022/01/20 01:45:27;;;;;;;;;;;;;;;-1.72;92.96;98132.00;5111730;28;20362;-64
2022/01/20 01:47:53;;;;;;;;;;;;;;;-1.75;92.78;98132.13;5112902;28;19930;-62
2022/01/20 01:50:20;;;;;;;;;;;;;;;-1.80;92.89;98136.63;5114438;28;19931;-63
2022/01/20 01:52:47;;;;;;;;;;;;;;;-1.83;93.37;98137.59;5116832;28;20279;-63
2022/01/20 01:55:14;;;;;;;;;;;;;;;-1.94;92.97;98141.53;5116539;28;19924;-67
2022/01/20 01:57:40;;;;;;;;;;;;;;;-1.82;92.70;98146.09;5116903;28;19924;-63
2022/01/20 02:00:08;;;;;;;;;;;;;;;-1.82;93.08;98133.34;5116960;28;20327;-64
2022/01/20 02:02:37;;;;;;;;;;;;;;;-1.79;92.27;98144.19;5116770;28;19928;-64
2022/01/20 02:05:05;;;;;;;;;;;;;;;-1.97;93.45;98150.97;5116559;28;19971;-63
2022/01/20 02:18:43;;;;;;;;;;;;;;;-1.95;92.41;98167.91;5116621;28;19930;-63
2022/01/20 02:21:11;;;;;;;;;;;;;;;-1.98;92.34;98168.88;5116864;28;19924;-66
2022/01/20 02:23:37;;;;;;;;;;;;;;;-2.05;92.96;98173.44;5116381;28;20374;-63
2022/01/20 02:26:04;;;;;;;;;;;;;;;-2.01;92.03;98169.84;5116080;28;20298;-63
2022/01/20 02:28:31;;;;;;;;;;;;;;;-2.04;92.78;98172.53;5116494;28;19924;-66
2022/01/20 02:30:58;;;;;;;;;;;;;;;-2.12;91.75;98174.59;5116611;28;20286;-64
2022/01/20 02:33:26;;;;;;;;;;;;;;;-2.05;92.01;98180.25;5126100;22;19923;-76
2022/01/20 02:35:54;;;;;;;;;;;;;;;-2.04;92.45;98185.25;5034657;28;19979;-76
2022/01/20 02:38:28;;;;;;;;;;;;;;;-2.14;93.06;98188.28;5035307;28;19929;-76
2022/01/20 02:46:23;;;;;;;;;;;;;;;-2.12;92.01;98204.34;5035413;28;19932;-76
2022/01/20 02:48:49;;;;;;;;;;;;;;;-2.16;92.06;98223.19;5035161;28;19925;-76
2022/01/20 02:51:16;;;;;;;;;;;;;;;-2.19;92.49;98222.44;5035188;28;20295;-75
2022/01/20 02:53:44;;;;;;;;;;;;;;;-2.21;92.17;98233.56;5035344;28;19925;-76
2022/01/20 02:56:11;;;;;;;;;;;;;;;-2.11;91.59;98234.84;5035324;28;19925;-74
2022/01/20 02:58:37;;;;;;;;;;;;;;;-2.26;91.52;98241.44;5035002;28;19932;-76
2022/01/20 03:01:04;;;;;;;;;;;;;;;-2.47;92.28;98243.16;5034336;28;19936;-76
2022/01/20 03:03:30;;;;;;;;;;;;;;;-2.34;92.07;98250.28;5034292;28;20379;-78
2022/01/20 03:05:57;;;;;;;;;;;;;;;-2.27;91.70;98241.50;5035079;28;19947;-77
2022/01/20 03:08:24;;;;;;;;;;;;;;;-2.38;91.57;98238.59;5034773;28;19925;-78
2022/01/20 03:10:52;;;;;;;;;;;;;;;-2.39;91.55;98242.00;5035098;28;19948;-77
2022/01/20 03:13:19;;;;;;;;;;;;;;;-2.27;91.01;98239.78;5048863;28;20002;-76
2022/01/20 03:15:46;;;;;;;;;;;;;;;-2.27;90.90;98246.59;5054605;28;19925;-78
2022/01/20 03:18:12;;;;;;;;;;;;;;;-2.42;90.61;98245.50;5054585;28;19925;-76
2022/01/20 03:20:39;;;;;;;;;;;;;;;-2.33;90.98;98257.88;5054579;28;20368;-78
2022/01/20 03:23:05;;;;;;;;;;;;;;;-2.28;89.44;98265.31;5054823;28;19936;-77
2022/01/20 03:25:32;;;;;;;;;;;;;;;-2.33;89.70;98262.97;5054465;28;19932;-77
2022/01/20 03:28:00;;;;;;;;;;;;;;;-2.48;90.27;98266.97;5054483;28;19935;-77
2022/01/20 03:30:28;;;;;;;;;;;;;;;-2.41;90.80;98268.38;5054378;28;20287;-76
2022/01/20 03:32:54;;;;;;;;;;;;;;;-2.49;89.49;98278.06;5054616;28;19955;-77
2022/01/20 03:35:21;;;;;;;;;;;;;;;-2.44;90.44;98282.94;5069051;28;19931;-77
2022/01/20 03:37:47;;;;;;;;;;;;;;;-2.39;90.17;98295.50;5074335;28;19924;-76
2022/01/20 03:40:14;;;;;;;;;;;;;;;-2.44;89.18;98288.88;5074538;28;19931;-76
2022/01/20 03:42:40;;;;;;;;;;;;;;;-2.53;89.61;98294.34;5074664;28;19964;-77
2022/01/20 03:45:09;;;;;;;;;;;;;;;-2.45;89.57;98282.13;5074311;28;19928;-77
2022/01/20 03:47:36;;;;;;;;;;;;;;;-2.44;88.66;98288.88;5074050;28;19931;-76
2022/01/20 03:50:59;;;;;;;;;;;;;;;-2.38;88.07;98279.34;5074203;28;19936;-77
2022/01/20 03:52:56;;;;;;;;;;;;;;;-2.56;88.56;98279.19;5073644;28;20003;-76
2022/01/20 03:55:22;;;;;;;;;;;;;;;-2.38;87.18;98290.34;5073616;28;19924;-76
2022/01/20 03:57:49;;;;;;;;;;;;;;;-2.41;87.12;98277.75;5074160;28;19928;-77
2022/01/20 04:00:17;;;;;;;;;;;;;;;-2.50;87.16;98283.22;5073989;28;19924;-77
2022/01/20 04:02:44;;;;;;;;;;;;;;;-2.41;86.21;98293.84;5074006;28;19925;-77
2022/01/20 04:05:10;;;;;;;;;;;;;;;-2.41;86.22;98296.41;5073624;28;19939;-78
2022/01/20 04:07:37;;;;;;;;;;;;;;;-2.43;85.40;98294.81;5073610;28;19925;-77
2022/01/20 04:10:04;;;;;;;;;;;;;;;-2.50;85.31;98293.41;5073708;28;20415;-77
2022/01/20 04:12:30;;;;;;;;;;;;;;;-2.46;85.71;98290.66;5065390;28;20306;-78
2022/01/20 04:15:00;;;;;;;;;;;;;;;-2.48;84.93;98296.72;5053245;28;20375;-77
2022/01/20 04:17:28;;;;;;;;;;;;;;;-2.45;83.96;98294.03;5053343;28;20051;-76
2022/01/20 04:19:54;;;;;;;;;;;;;;;-2.44;84.29;98299.06;5053553;28;19978;-76
2022/01/20 04:22:23;;;;;;;;;;;;;;;-2.42;83.80;98309.19;5053387;28;19925;-77
2022/01/20 04:24:50;;;;;;;;;;;;;;;-2.56;83.99;98319.94;5053410;28;19931;-76
2022/01/20 04:27:17;;;;;;;;;;;;;;;-2.45;84.55;98322.03;5053199;28;19924;-78
2022/01/20 04:29:46;;;;;;;;;;;;;;;-2.46;83.52;98321.22;5053047;28;20330;-79
2022/01/20 04:32:12;;;;;;;;;;;;;;;-2.46;83.14;98326.31;5053208;28;19963;-78
2022/01/20 04:34:40;;;;;;;;;;;;;;;-2.54;82.13;98325.81;5076518;22;20362;-80
2022/01/20 04:37:08;;;;;;;;;;;;;;;-2.43;82.49;98340.63;5073036;28;19931;-64
2022/01/20 04:39:40;;;;;;;;;;;;;;;-2.57;82.15;98348.00;5072782;28;19931;-64
2022/01/20 04:42:07;;;;;;;;;;;;;;;-2.45;81.64;98355.97;5072742;28;19999;-64
2022/01/20 04:44:41;;;;;;;;;;;;;;;-2.50;81.65;98365.50;5084260;28;19924;-65
2022/01/20 04:47:17;;;;;;;;;;;;;;;-2.57;82.27;98388.72;5093178;28;19924;-65
2022/01/20 04:58:08;;;;;;;;;;;;;;;-2.40;80.16;98419.47;5050910;28;20133;-69
2022/01/20 05:00:34;;;;;;;;;;;;;;;-2.38;79.71;98435.50;5093205;28;19973;-64
2022/01/20 05:03:03;;;;;;;;;;;;;;;-2.44;80.62;98436.59;5092671;28;20342;-69
2022/01/20 05:05:31;;;;;;;;;;;;;;;-2.45;80.38;98444.28;5092853;28;20368;-62
2022/01/20 05:07:58;;;;;;;;;;;;;;;-2.47;79.41;98441.78;5092826;28;20401;-78
2022/01/20 05:10:27;;;;;;;;;;;;;;;-2.42;78.65;98439.06;5093128;28;19934;-71
2022/01/20 05:15:34;;;;;;;;;;;;;;;-2.53;79.28;98431.84;5110404;28;19924;-63
2022/01/20 05:18:01;;;;;;;;;;;;;;;-2.60;79.27;98439.78;5113348;28;19928;-72
2022/01/20 05:20:27;;;;;;;;;;;;;;;-2.58;78.79;98443.09;5112938;28;20290;-70
2022/01/20 05:22:55;;;;;;;;;;;;;;;-2.78;80.19;98448.94;5113223;28;19931;-69
2022/01/20 05:25:22;;;;;;;;;;;;;;;-2.72;79.96;98461.47;5112146;28;19947;-70
2022/01/20 05:27:48;;;;;;;;;;;;;;;-2.92;81.81;98460.47;5113331;28;19931;-64
2022/01/20 05:30:15;;;;;;;;;;;;;;;-2.84;80.72;98475.44;5113111;28;19924;-68
2022/01/20 05:32:42;;;;;;;;;;;;;;;-2.89;81.17;98480.72;5113165;28;19998;-65
2022/01/20 05:35:09;;;;;;;;;;;;;;;-2.79;80.28;98486.28;5111527;22;19939;-77
2022/01/20 05:37:35;;;;;;;;;;;;;;;-2.99;79.98;98484.47;5092824;28;19924;-77
2022/01/20 05:40:04;;;;;;;;;;;;;;;-2.87;80.57;98491.66;5092493;28;20298;-75
2022/01/20 05:42:30;;;;;;;;;;;;;;;-2.91;80.67;98504.56;5091360;28;19924;-77
2022/01/20 05:44:57;;;;;;;;;;;;;;;-3.00;81.89;98499.81;5105378;28;20298;-75
2022/01/20 05:47:28;;;;;;;;;;;;;;;-3.02;80.71;98504.94;5112632;28;19924;-76
2022/01/20 05:49:55;;;;;;;;;;;;;;;-3.03;80.44;98508.38;5112730;28;20356;-75
2022/01/20 05:52:21;;;;;;;;;;;;;;;-2.98;79.54;98509.03;5113003;28;19953;-75
2022/01/20 05:54:48;;;;;;;;;;;;;;;-3.05;79.69;98520.31;5111896;28;19924;-76
2022/01/20 05:57:16;;;;;;;;;;;;;;;-3.10;78.49;98522.19;5112463;28;19935;-75
2022/01/20 05:59:42;;;;;;;;;;;;;;;-3.03;78.94;98528.72;5112972;28;19924;-75
2022/01/20 06:02:13;;;;;;;;;;;;;;;-3.05;79.42;98527.13;5112747;28;19935;-76
2022/01/20 06:04:40;;;;;;;;;;;;;;;-3.06;77.87;98536.44;5112758;28;19966;-77
2022/01/20 06:07:07;;;;;;;;;;;;;;;-3.06;77.46;98541.53;5112701;28;19924;-76
2022/01/20 06:09:33;;;;;;;;;;;;;;;-2.96;76.39;98540.34;5112913;28;19927;-76
2022/01/20 06:12:00;;;;;;;;;;;;;;;-2.99;76.63;98553.16;5112798;28;19931;-77
2022/01/20 06:14:28;;;;;;;;;;;;;;;-3.00;nan;98545.59;5112488;28;19923;-76
2022/01/20 06:16:55;;;;;;;;;;;;;;;-2.98;76.39;98549.75;5112750;28;19924;-76
2022/01/20 06:19:22;;;;;;;;;;;;;;;-3.07;76.56;98563.59;5112696;28;19931;-77
2022/01/20 06:21:48;;;;;;;;;;;;;;;-2.98;76.01;98570.13;5112469;28;19924;-77
2022/01/20 06:24:15;;;;;;;;;;;;;;;-3.05;75.99;98560.19;5112393;28;19931;-77
2022/01/20 06:26:42;;;;;;;;;;;;;;;-3.00;75.60;98571.06;5117119;28;19931;-76
2022/01/20 06:29:08;;;;;;;;;;;;;;;-2.97;76.88;98574.31;5130627;27;19970;-77
2022/01/20 06:31:37;;;;;;;;;;;;;;;-2.95;74.44;98576.81;5112447;28;19928;-78
2022/01/20 06:34:03;;;;;;;;;;;;;;;-3.01;74.71;98579.56;5120228;28;19924;-74
2022/01/20 06:36:30;;;;;;;;;;;;;;;-3.03;74.00;98584.72;5134201;27;20377;-73
2022/01/20 06:38:56;;;;;;;;;;;;;;;-2.98;74.73;98595.56;5138197;27;19924;-79
2022/01/20 06:41:23;;;;;;;;;;;;;;;-3.05;73.39;98611.91;5138377;27;19923;-77
2022/01/20 06:43:49;;;;;;;;;;;;;;;-3.10;75.48;98619.69;5122518;27;19924;-80
2022/01/20 06:46:17;;;;;;;;;;;;;;;-3.04;73.24;98621.19;5117476;28;19946;-78
2022/01/20 06:48:45;;;;;;;;;;;;;;;-3.08;74.29;98623.03;5117117;28;19963;-79
2022/01/20 06:51:11;;;;;;;;;;;;;;;-3.07;73.45;98639.94;5116488;28;19923;-79
2022/01/20 06:53:38;;;;;;;;;;;;;;;-3.02;73.10;98632.16;5115901;28;19924;-77
2022/01/20 06:56:05;;;;;;;;;;;;;;;-3.10;73.64;98644.31;5120585;28;19931;-80
2022/01/20 06:58:32;;;;;;;;;;;;;;;-3.18;74.53;98651.38;5117660;27;19927;-80
2022/01/20 07:00:59;;;;;;;;;;;;;;;-3.17;73.68;98655.56;5108944;27;19924;-77
2022/01/20 07:03:25;;;;;;;;;;;;;;;-3.24;73.32;98657.47;5095432;28;20960;-77
2022/01/20 07:05:54;;;;;;;;;;;;;;;-3.21;73.28;98665.00;5093567;28;19924;-76
2022/01/20 07:08:20;;;;;;;;;;;;;;;-3.25;73.67;98671.06;5093964;28;19935;-80
2022/01/20 07:10:47;;;;;;;;;;;;;;;-3.32;75.06;98665.34;5094439;28;20031;-78
2022/01/20 07:13:14;;;;;;;;;;;;;;;-3.24;73.32;98665.09;5104387;28;20369;-78
2022/01/20 07:15:40;;;;;;;;;;;;;;;-3.39;74.03;98668.13;5112012;28;19924;-80
2022/01/20 07:18:07;;;;;;;;;;;;;;;-3.35;73.88;98667.97;5094773;28;19931;-79
2022/01/20 07:20:33;;;;;;;;;;;;;;;-3.39;73.34;98678.28;5114894;28;20404;-77
2022/01/20 07:23:01;;;;;;;;;;;;;;;-3.38;74.16;98680.78;5108255;28;19934;-77
2022/01/20 07:25:28;;;;;;;;;;;;;;;-3.41;73.64;98680.91;5093462;28;19924;-79
2022/01/20 07:27:54;;;;;;;;;;;;;;;-3.43;74.60;98687.75;5094258;28;19931;-78
2022/01/20 07:30:21;;;;;;;;;;;;;;;-3.50;75.18;98691.34;5096335;28;19924;-77
2022/01/20 07:32:48;;;;;;;;;;;;;;;-3.56;74.56;98686.47;5111846;28;19925;-66
2022/01/20 07:35:14;;;;;;;;;;;;;;;-3.61;73.35;98698.47;5104399;28;19969;-67
2022/01/20 07:37:41;;;;;;;;;;;;;;;-3.74;74.90;98700.56;5113229;28;19924;-67
2022/01/20 07:40:09;;;;;;;;;;;;;;;-3.65;74.86;98705.34;5109446;28;19924;-66
2022/01/20 07:42:36;;;;;;;;;;;;;;;-3.56;73.73;98710.16;5101420;28;19931;-68
2022/01/20 07:45:03;;;;;;;;;;;;;;;-3.57;73.49;98703.44;5113452;28;19930;-67
2022/01/20 07:47:29;;;;;;;;;;;;;;;-3.59;74.34;98706.88;5113829;28;19928;-67
2022/01/20 07:49:56;;;;;;;;;;;;;;;-3.64;75.00;98713.81;5113081;28;19935;-68
2022/01/20 07:52:23;;;;;;;;;;;;;;;-3.65;74.17;98723.13;5113110;28;19924;-67
2022/01/20 07:54:49;;;;;;;;;;;;;;;-3.70;74.21;98730.06;5113009;28;19924;-68
2022/01/20 07:57:18;;;;;;;;;;;;;;;-3.61;73.86;98729.81;5114200;28;20298;-67
2022/01/20 07:59:45;;;;;;;;;;;;;;;-3.61;75.02;98734.06;5092292;28;20417;-68
2022/01/20 08:02:11;;;;;;;;;;;;;;;-3.60;73.65;98735.72;5092932;28;19935;-67
2022/01/20 08:04:38;;;;;;;;;;;;;;;-3.52;72.34;98731.22;5093335;28;19924;-67
2022/01/20 08:07:04;;;;;;;;;;;;;;;-3.53;72.22;98735.50;5093096;28;19946;-64
2022/01/20 08:09:31;;;;;;;;;;;;;;;-3.56;72.88;98742.38;5092552;28;19935;-68
2022/01/20 08:11:57;;;;;;;;;;;;;;;-3.61;72.92;98754.41;5092267;28;19924;-67
2022/01/20 08:14:28;;;;;;;;;;;;;;;-3.59;72.48;98757.72;5093093;28;19924;-66
2022/01/20 08:16:54;;;;;;;;;;;;;;;-3.71;74.32;98761.44;5092017;28;19969;-64
2022/01/20 08:19:21;;;;;;;;;;;;;;;-3.57;72.53;98761.91;5093022;28;20373;-65
2022/01/20 08:21:47;;;;;;;;;;;;;;;-3.51;73.35;98769.34;5113733;28;19946;-65
2022/01/20 08:24:14;;;;;;;;;;;;;;;-3.75;73.35;98778.50;5113444;28;19931;-64
2022/01/20 08:26:41;;;;;;;;;;;;;;;-3.66;73.35;98782.50;5113537;28;19924;-67
2022/01/20 08:29:07;;;;;;;;;;;;;;;-3.67;73.30;98790.16;5113833;28;19924;-68
2022/01/20 08:31:35;;;;;;;;;;;;;;;-3.59;71.74;98783.97;5113853;28;19931;-64
2022/01/20 08:34:02;;;;;;;;;;;;;;;-3.53;72.34;98791.41;5114424;28;19931;-66
2022/01/20 08:36:28;;;;;;;;;;;;;;;-3.62;72.54;98795.94;5113593;28;20297;-64
2022/01/20 08:38:55;;;;;;;;;;;;;;;-3.66;73.25;98800.28;5113709;28;19923;-67
2022/01/20 08:41:21;;;;;;;;;;;;;;;-3.81;74.10;98809.16;5113736;28;19932;-63
2022/01/20 08:43:48;;;;;;;;;;;;;;;-3.92;75.01;98811.16;5113776;28;19924;-68
2022/01/20 08:46:19;;;;;;;;;;;;;;;-3.97;76.02;98805.38;5113883;28;19931;-66
2022/01/20 08:48:47;;;;;;;;;;;;;;;-4.00;74.45;98810.56;5113651;28;19930;-66
2022/01/20 08:51:14;;;;;;;;;;;;;;;-3.84;75.64;98821.94;5113693;28;19928;-64
2022/01/20 08:53:40;;;;;;;;;;;;;;;-3.84;75.85;98826.22;5092921;28;19931;-67
2022/01/20 08:56:07;;;;;;;;;;;;;;;-3.66;75.01;98823.16;5093074;28;19924;-67
2022/01/20 08:58:33;;;;;;;;;;;;;;;-3.84;74.98;98829.56;5093129;28;19924;-67
2022/01/20 09:01:02;;;;;;;;;;;;;;;-3.84;74.33;98829.56;5093115;28;19924;-65
2022/01/20 09:03:28;;;;;;;;;;;;;;;-3.81;74.13;98839.66;5093087;28;19928;-64
2022/01/20 09:05:56;;;;;;;;;;;;;;;-3.74;74.25;98830.16;5092928;28;19924;-64
2022/01/20 09:08:23;;;;;;;;;;;;;;;-3.90;73.72;98839.06;5092950;28;19924;-64
2022/01/20 09:10:54;;;;;;;;;;;;;;;-4.02;75.15;98840.25;5092943;28;19924;-63
2022/01/20 09:16:05;;;;;;;;;;;;;;;-3.84;74.84;98839.75;5093076;28;19931;-64
2022/01/20 09:18:31;;;;;;;;;;;;;;;-3.85;73.17;98838.09;5092866;28;19950;-66
2022/01/20 09:20:59;;;;;;;;;;;;;;;-3.80;73.53;98841.34;5111512;28;19924;-65
2022/01/20 09:23:26;;;;;;;;;;;;;;;-3.85;73.75;98855.88;5112903;28;19931;-64
2022/01/20 09:25:52;;;;;;;;;;;;;;;-3.83;73.89;98848.19;5112982;28;19928;-68
2022/01/20 09:28:19;;;;;;;;;;;;;;;-3.99;73.82;98856.22;5113150;28;20026;-67
2022/01/20 09:30:46;;;;;;;;;;;;;;;-4.02;73.38;98855.47;5112903;28;19947;-67
2022/01/20 09:33:16;;;;;;;;;;;;;;;-4.06;74.75;98854.75;5112832;28;19924;-67
2022/01/20 09:35:44;;;;;;;;;;;;;;;-4.12;74.73;98856.59;5140536;22;19945;-68
2022/01/20 09:38:12;;;;;;;;;;;;;;;-3.92;73.79;98863.69;5133469;28;19932;-69
2022/01/20 09:40:39;;;;;;;;;;;;;;;-4.05;75.10;98860.66;5133349;28;19924;-69
2022/01/20 09:43:06;;;;;;;;;;;;;;;-4.08;75.55;98870.91;5133524;28;19931;-69
2022/01/20 09:45:33;;;;;;;;;;;;;;;-4.06;74.68;98869.97;5133386;28;19923;-70
2022/01/20 09:48:00;;;;;;;;;;;;;;;-4.13;74.96;98868.47;5113564;27;19938;-70
2022/01/20 09:50:27;;;;;;;;;;;;;;;-4.16;75.19;98871.09;5112970;28;20295;-70
2022/01/20 09:52:57;;;;;;;;;;;;;;;-4.11;75.40;98873.47;5112732;28;19924;-70
2022/01/20 09:55:25;;;;;;;;;;;;;;;-4.25;74.58;98881.47;5112616;28;19931;-71
2022/01/20 09:57:51;;;;;;;;;;;;;;;-4.22;74.86;98881.38;5112590;28;20394;-70
2022/01/20 10:00:18;;;;;;;;;;;;;;;-4.36;75.68;98875.81;5114021;27;19924;-70
2022/01/20 10:02:52;;;;;;;;;;;;;;;-4.41;77.01;98886.09;5133209;28;19924;-69
2022/01/20 10:05:26;;;;;;;;;;;;;;;-4.53;77.18;98888.91;5133173;28;19935;-70
2022/01/20 10:07:53;;;;;;;;;;;;;;;-4.49;75.34;98890.50;5133016;28;19923;-70
2022/01/20 10:10:19;;;;;;;;;;;;;;;-4.42;75.59;98894.56;5133178;27;19973;-70
2022/01/20 10:12:47;;;;;;;;;;;;;;;-4.39;75.97;98894.50;5136589;27;19923;-70
2022/01/20 10:15:14;;;;;;;;;;;;;;;-4.56;75.98;98891.53;5123203;27;19935;-70
2022/01/20 10:17:41;;;;;;;;;;;;;;;-4.47;76.88;98901.44;5116537;28;19931;-70
2022/01/20 10:20:09;;;;;;;;;;;;;;;-4.62;75.49;98897.59;5116409;28;20305;-69
2022/01/20 10:22:36;;;;;;;;;;;;;;;-4.70;77.39;98901.97;5116518;28;19930;-71
2022/01/20 10:25:04;;;;;;;;;;;;;;;-4.69;75.95;98904.50;5116085;28;20281;-70
2022/01/20 10:27:32;;;;;;;;;;;;;;;-4.83;76.84;98907.34;5116290;28;19935;-70
2022/01/20 10:30:00;;;;;;;;;;;;;;;-4.91;76.72;98908.34;5116254;28;19977;-69
2022/01/20 10:32:27;;;;;;;;;;;;;;;-4.73;75.84;98918.09;5116354;28;20396;-70
2022/01/20 10:35:04;;;;;;;;;;;;;;;-4.90;75.21;98921.03;5126910;22;19923;-68
2022/01/20 10:37:31;;;;;;;;;;;;;;;-4.82;76.15;98931.00;5116058;28;19928;-67
2022/01/20 10:40:05;;;;;;;;;;;;;;;-4.82;75.56;98919.16;5115996;28;19924;-69
2022/01/20 10:42:36;;;;;;;;;;;;;;;-4.80;75.00;98916.59;5115396;28;19928;-68
2022/01/20 10:45:04;;;;;;;;;;;;;;;-4.90;74.04;98920.19;5127870;27;19924;-67
2022/01/20 10:47:32;;;;;;;;;;;;;;;-5.00;74.77;98926.34;5136581;27;19923;-69
2022/01/20 10:50:08;;;;;;;;;;;;;;;-4.97;74.43;98923.72;5136461;27;19924;-64
2022/01/20 10:52:37;;;;;;;;;;;;;;;-4.97;75.69;98927.09;5136925;27;19923;-67
2022/01/20 10:55:06;;;;;;;;;;;;;;;-5.03;74.26;98930.59;5136433;27;19924;-65
2022/01/20 10:57:33;;;;;;;;;;;;;;;-5.09;73.22;98932.41;5136403;27;19927;-64
2022/01/20 11:00:02;;;;;;;;;;;;;;;-4.96;73.89;98933.00;5136447;27;19949;-66
2022/01/20 11:02:30;;;;;;;;;;;;;;;-5.40;73.83;98930.47;5136203;27;19966;-68
2022/01/20 11:04:58;;;;;;;;;;;;;;;-5.36;74.68;98933.81;5136123;27;20017;-68
2022/01/20 11:07:24;;;;;;;;;;;;;;;-5.23;74.20;98936.94;5136044;27;20392;-65
2022/01/20 11:09:56;;;;;;;;;;;;;;;-5.21;75.75;98940.25;5135717;27;20010;-61
2022/01/20 11:12:23;;;;;;;;;;;;;;;-5.24;74.75;98936.13;5136003;27;19934;-65
2022/01/20 11:14:51;;;;;;;;;;;;;;;-5.40;74.42;98934.72;5135847;27;20381;-63
2022/01/20 11:17:18;;;;;;;;;;;;;;;-5.27;73.87;98944.63;5135709;27;19923;-67
2022/01/20 11:19:47;;;;;;;;;;;;;;;-5.64;74.54;98944.47;5135715;27;20388;-64
2022/01/20 11:22:14;;;;;;;;;;;;;;;-5.40;74.75;98948.22;5134968;27;20372;-64
2022/01/20 11:24:41;;;;;;;;;;;;;;;-5.38;73.57;98949.03;5135360;27;19931;-64
2022/01/20 11:27:09;;;;;;;;;;;;;;;-5.55;75.47;98951.91;5135681;27;19923;-68
2022/01/20 11:29:40;;;;;;;;;;;;;;;-5.48;73.61;98947.53;5135558;27;19923;-68
2022/01/20 11:32:16;;;;;;;;;;;;;;;-5.58;74.75;98951.13;5135525;27;19972;-65
2022/01/20 11:34:42;;;;;;;;;;;;;;;-5.63;73.79;98953.72;5135731;27;20357;-67
2022/01/20 11:37:10;;;;;;;;;;;;;;;-5.59;74.94;98952.81;5135277;27;20404;-68
2022/01/20 11:39:37;;;;;;;;;;;;;;;-5.61;76.15;98954.53;5135238;27;20399;-64
2022/01/20 11:42:04;;;;;;;;;;;;;;;-5.59;75.47;98960.41;5135490;27;19923;-68
2022/01/20 11:44:32;;;;;;;;;;;;;;;-5.70;76.92;98958.09;5135288;27;19924;-64
2022/01/20 11:47:06;;;;;;;;;;;;;;;-5.74;76.34;98956.47;5135493;27;19950;-68
2022/01/20 11:49:35;;;;;;;;;;;;;;;-5.87;77.42;98956.72;5135197;27;20285;-65
2022/01/20 11:52:02;;;;;;;;;;;;;;;-5.80;76.67;98968.41;5135150;27;20358;-64
2022/01/20 11:54:31;;;;;;;;;;;;;;;-5.83;76.03;98971.84;5134967;27;19924;-64
2022/01/20 11:57:05;;;;;;;;;;;;;;;-5.81;76.11;98981.91;5134892;27;20365;-64
2022/01/20 11:59:36;;;;;;;;;;;;;;;-5.95;76.85;98977.13;5135100;27;19930;-64
2022/01/20 12:02:02;;;;;;;;;;;;;;;-6.05;75.53;98978.13;5135024;27;19923;-67
2022/01/20 12:04:32;;;;;;;;;;;;;;;-6.07;76.43;98990.81;5114405;28;19924;-68
2022/01/20 12:06:58;;;;;;;;;;;;;;;-6.07;76.71;98989.97;5114265;28;20378;-64
2022/01/20 12:09:28;;;;;;;;;;;;;;;-5.93;76.56;98995.63;5114243;28;20286;-64
2022/01/20 12:11:57;;;;;;;;;;;;;;;-6.03;76.31;98989.09;5114277;28;20423;-65
2022/01/20 12:14:32;;;;;;;;;;;;;;;-6.07;76.87;98988.28;5114097;28;19923;-69
2022/01/20 12:17:03;;;;;;;;;;;;;;;-6.07;77.20;99002.63;5113813;28;19924;-64
2022/01/20 12:19:30;;;;;;;;;;;;;;;-5.85;75.77;98998.06;5113804;28;20313;-67
2022/01/20 12:21:57;;;;;;;;;;;;;;;-6.16;77.34;99007.00;5118771;27;20328;-66
2022/01/20 12:24:23;;;;;;;;;;;;;;;-6.28;77.09;99006.34;5134577;27;20311;-64
2022/01/20 12:26:50;;;;;;;;;;;;;;;-6.36;77.43;99009.81;5134592;27;19923;-65
2022/01/20 12:29:18;;;;;;;;;;;;;;;-6.31;76.99;98999.63;5134691;27;20652;-69
2022/01/20 12:31:45;;;;;;;;;;;;;;;-6.39;77.89;99003.97;5133922;27;19923;-66
2022/01/20 12:34:12;;;;;;;;;;;;;;;-6.34;78.58;99009.78;5134253;27;19947;-66
2022/01/20 12:36:39;;;;;;;;;;;;;;;-6.33;78.43;99011.47;5134316;27;19927;-66
2022/01/20 12:39:07;;;;;;;;;;;;;;;-6.44;79.14;99008.25;5133556;27;19927;-67
2022/01/20 12:41:33;;;;;;;;;;;;;;;-6.37;79.29;99007.28;5134472;27;19923;-66
2022/01/20 12:44:04;;;;;;;;;;;;;;;-6.44;78.51;99009.09;5134216;27;19923;-67
2022/01/20 12:46:33;;;;;;;;;;;;;;;-6.35;78.91;99011.47;5133964;27;20392;-67
2022/01/20 12:49:00;;;;;;;;;;;;;;;-6.36;78.92;99026.69;5133853;27;19923;-67
2022/01/20 12:51:38;;;;;;;;;;;;;;;-6.57;79.65;99031.19;5134015;27;19959;-67
2022/01/20 12:54:06;;;;;;;;;;;;;;;-6.64;78.62;99036.34;5133785;27;19924;-67
2022/01/20 12:56:34;;;;;;;;;;;;;;;-6.67;79.57;99033.88;5133800;27;19930;-67
2022/01/20 12:59:00;;;;;;;;;;;;;;;-6.66;80.50;99038.06;5133352;27;20400;-68
2022/01/20 13:01:37;;;;;;;;;;;;;;;-6.73;79.76;99031.38;5133801;27;19923;-67
2022/01/20 13:04:06;;;;;;;;;;;;;;;-6.66;78.58;99033.81;5133856;27;19934;-67
2022/01/20 13:06:33;;;;;;;;;;;;;;;-6.73;79.99;99034.78;5134020;27;19928;-68
2022/01/20 13:09:02;;;;;;;;;;;;;;;-6.86;78.77;99034.09;5133756;27;20377;-68
2022/01/20 13:11:30;;;;;;;;;;;;;;;-7.03;79.86;99039.34;5118415;27;19924;-67
2022/01/20 13:13:58;;;;;;;;;;;;;;;-6.93;80.72;99036.72;5112985;28;19927;-68
2022/01/20 13:16:25;;;;;;;;;;;;;;;-6.83;78.51;99035.75;5113104;28;20374;-67
2022/01/20 13:18:52;;;;;;;;;;;;;;;-7.08;79.97;99050.34;5112888;28;19923;-66
2022/01/20 13:21:23;;;;;;;;;;;;;;;-7.12;80.63;99056.28;5113090;28;19923;-67
2022/01/20 13:23:55;;;;;;;;;;;;;;;-7.05;80.50;99057.91;5112980;28;20018;-67
2022/01/20 13:26:22;;;;;;;;;;;;;;;-7.18;80.13;99067.31;5122290;27;19924;-67
2022/01/20 13:28:57;;;;;;;;;;;;;;;-7.30;80.91;99068.25;5133513;27;19957;-68
2022/01/20 13:31:23;;;;;;;;;;;;;;;-7.38;81.51;99067.50;5133507;28;19923;-67
2022/01/20 13:33:50;;;;;;;;;;;;;;;-7.40;81.12;99070.88;5133794;28;19923;-68
2022/01/20 13:36:19;;;;;;;;;;;;;;;-7.38;81.28;99074.25;5133466;28;19923;-68
2022/01/20 13:38:49;;;;;;;;;;;;;;;-7.44;81.80;99067.56;5133178;28;20369;-69
2022/01/20 13:41:19;;;;;;;;;;;;;;;-7.54;82.20;99068.50;5133285;28;19924;-68
2022/01/20 13:46:30;;;;;;;;;;;;;;;-7.66;82.85;99077.00;5134726;27;20093;-68
2022/01/20 13:49:06;;;;;;;;;;;;;;;-7.66;82.49;99077.84;5137440;27;19934;-68